Time;durP1;ratioP1;P1;durP2;ratioP2;P2;SDS_P1;SDS_P2;PMS_P1;PMS_P2;Temp;Humidity;BMP_temperature;BMP_pressure;BME280_temperature;BME280_humidity;BME280_pressure;Samples;Min_cycle;Max_cycle;Signal;HPM_P1;HPM_P2
2022/03/10 00:02:02;;;;;;;40.30;20.27;;;;;;;-142.75;100.00;78685.00;5032875;28;20028;-67
2022/03/10 00:04:27;;;;;;;42.40;21.73;;;;;;;-142.75;100.00;78692.88;5032525;28;20083;-67
2022/03/10 00:06:52;;;;;;;41.42;20.55;;;;;;;-142.75;100.00;78696.81;5032667;28;20025;-68
2022/03/10 00:09:18;;;;;;;39.67;20.73;;;;;;;-142.75;100.00;78702.72;5032253;28;20033;-67
2022/03/10 00:11:43;;;;;;;39.97;20.83;;;;;;;-142.75;100.00;78712.56;5031232;28;20650;-68
2022/03/10 00:14:10;;;;;;;44.13;21.33;;;;;;;-142.75;100.00;78712.56;5032374;28;20061;-68
2022/03/10 00:16:37;;;;;;;42.30;21.47;;;;;;;-142.75;100.00;78726.34;5031367;28;20048;-68
2022/03/10 00:19:02;;;;;;;42.20;19.87;;;;;;;-142.75;100.00;78732.25;5032029;28;20076;-68
2022/03/10 00:21:28;;;;;;;42.72;21.73;;;;;;;-142.75;100.00;78732.25;5032216;28;20026;-67
2022/03/10 00:23:53;;;;;;;44.22;20.98;;;;;;;-142.75;100.00;78744.09;5032263;28;20112;-68
2022/03/10 00:26:18;;;;;;;44.85;21.27;;;;;;;-142.75;100.00;78742.09;5032172;28;20021;-68
2022/03/10 00:28:43;;;;;;;42.17;20.38;;;;;;;-142.75;100.00;78744.09;5030574;28;20453;-67
2022/03/10 00:31:09;;;;;;;41.95;21.23;;;;;;;-142.75;100.00;78744.09;5030475;28;20032;-68
2022/03/10 00:33:34;;;;;;;43.65;20.88;;;;;;;-142.75;100.00;78742.09;5032102;28;20471;-67
2022/03/10 00:35:59;;;;;;;38.57;20.07;;;;;;;-142.75;100.00;78744.09;5031998;28;20487;-66
2022/03/10 00:38:25;;;;;;;41.53;21.00;;;;;;;-142.75;100.00;78744.09;5031609;28;20288;-67
2022/03/10 00:40:50;;;;;;;45.72;20.05;;;;;;;-142.75;100.00;78750.00;5031920;28;20052;-67
2022/03/10 00:43:16;;;;;;;37.20;19.67;;;;;;;-142.75;100.00;78748.03;5030535;28;20459;-67
2022/03/10 00:45:41;;;;;;;42.35;20.38;;;;;;;-142.75;100.00;78755.91;5031803;28;20112;-67
2022/03/10 00:48:07;;;;;;;38.58;19.95;;;;;;;-142.75;100.00;78763.78;5031450;28;20043;-67
2022/03/10 00:50:32;;;;;;;45.45;21.52;;;;;;;-142.75;100.00;78767.72;5031724;28;20475;-67
2022/03/10 00:52:59;;;;;;;43.83;21.90;;;;;;;-142.75;100.00;78775.59;5031646;28;20387;-68
2022/03/10 00:55:25;;;;;;;41.60;19.80;;;;;;;-142.75;100.00;78779.53;5031678;28;20029;-66
2022/03/10 00:57:51;;;;;;;41.28;20.38;;;;;;;-142.75;100.00;78779.53;5031125;28;20040;-66
2022/03/10 01:00:17;;;;;;;42.28;19.10;;;;;;;-142.75;100.00;78789.38;5030167;28;20029;-67
2022/03/10 01:02:42;;;;;;;40.25;22.27;;;;;;;-142.75;100.00;78797.25;5030171;28;20021;-67
2022/03/10 01:05:09;;;;;;;43.83;20.85;;;;;;;-142.75;100.00;78789.38;5031511;28;20025;-67
2022/03/10 01:07:35;;;;;;;41.07;22.10;;;;;;;-142.75;100.00;78787.41;5031337;28;20017;-67
2022/03/10 01:10:01;;;;;;;37.53;21.20;;;;;;;-142.75;100.00;78783.47;5031086;28;20021;-67
2022/03/10 01:12:26;;;;;;;;;;;;;;;-142.75;100.00;78783.47;5031704;28;20434;-67
2022/03/10 01:14:52;;;;;;;40.57;19.97;;;;;;;-142.75;100.00;78797.25;5031229;28;19913;-68
2022/03/10 01:17:18;;;;;;;35.30;19.02;;;;;;;-142.75;100.00;78807.09;5029882;28;20037;-68
2022/03/10 01:19:44;;;;;;;41.42;21.80;;;;;;;-142.75;100.00;78844.53;5030963;28;20077;-67
2022/03/10 01:22:09;;;;;;;36.38;20.05;;;;;;;-142.75;100.00;78850.44;5031111;28;20312;-68
2022/03/10 01:24:35;;;;;;;35.40;19.27;;;;;;;-142.75;100.00;78878.00;5031212;28;20443;-67
2022/03/10 01:27:00;;;;;;;40.38;21.10;;;;;;;-142.75;100.00;78905.59;5031043;28;20040;-67
2022/03/10 01:29:25;;;;;;;42.20;21.30;;;;;;;-142.75;100.00;78933.16;5030483;28;20373;-67
2022/03/10 01:31:50;;;;;;;43.13;22.10;;;;;;;-142.75;100.00;78952.84;5029567;28;20033;-67
2022/03/10 01:34:16;;;;;;;39.30;21.43;;;;;;;-142.75;100.00;78946.94;5030954;28;20326;-67
2022/03/10 01:36:41;;;;;;;39.15;20.65;;;;;;;-142.75;100.00;78944.97;5030897;28;20338;-67
2022/03/10 01:39:07;;;;;;;39.40;20.50;;;;;;;-142.75;100.00;78948.91;5030688;28;20033;-67
2022/03/10 01:41:33;;;;;;;43.58;21.85;;;;;;;-142.75;100.00;78937.09;5030727;28;20484;-67
2022/03/10 01:44:02;;;;;;;;;;;;;;;-142.75;100.00;78917.41;5031149;28;20025;-67
2022/03/10 01:46:28;;;;;;;42.60;20.87;;;;;;;-142.75;100.00;78913.47;5029567;28;19919;-68
2022/03/10 01:48:55;;;;;;;40.60;21.73;;;;;;;-142.75;100.00;78917.41;5030505;28;20032;-67
2022/03/10 01:51:22;;;;;;;42.03;21.37;;;;;;;-142.75;100.00;78905.59;5030696;28;20033;-68
2022/03/10 01:53:48;;;;;;;46.77;21.43;;;;;;;-142.75;100.00;78905.59;5030714;28;20026;-68
2022/03/10 01:56:14;;;;;;;38.47;21.07;;;;;;;-142.75;100.00;78903.63;5030719;28;20429;-68
2022/03/10 01:58:40;;;;;;;40.22;21.40;;;;;;;-142.75;100.00;78901.66;5030257;28;20029;-67
2022/03/10 02:01:07;;;;;;;39.90;20.45;;;;;;;-142.75;100.00;78905.59;5030667;28;20030;-67
2022/03/10 02:03:32;;;;;;;45.20;22.37;;;;;;;-142.75;100.00;78903.63;5030696;28;20021;-67
2022/03/10 02:05:57;;;;;;;42.22;20.98;;;;;;;-142.75;100.00;78901.66;5029410;28;20022;-67
2022/03/10 02:11:07;;;;;;;42.43;21.53;;;;;;;-142.75;100.00;78907.56;5030884;28;20107;-68
2022/03/10 02:13:32;;;;;;;42.53;21.02;;;;;;;-142.75;100.00;78917.41;5029283;28;20037;-67
2022/03/10 02:18:41;;;;;;;39.13;20.87;;;;;;;-142.75;100.00;78935.13;5030239;28;20411;-68
2022/03/10 02:21:07;;;;;;;42.42;21.05;;;;;;;-142.75;100.00;78944.97;5030313;28;20021;-68
2022/03/10 02:23:32;;;;;;;41.13;20.83;;;;;;;-142.75;100.00;78952.84;5030546;28;20531;-68
2022/03/10 02:25:59;;;;;;;39.65;20.13;;;;;;;-142.75;100.00;78952.84;5030467;28;20039;-67
2022/03/10 02:28:26;;;;;;;40.50;19.53;;;;;;;-142.75;100.00;78956.78;5030166;28;20545;-67
2022/03/10 02:30:51;;;;;;;43.17;20.30;;;;;;;-142.75;100.00;78954.81;5028886;28;20423;-67
2022/03/10 02:33:17;;;;;;;45.20;20.20;;;;;;;-142.75;100.00;78952.84;5030516;28;20049;-67
2022/03/10 02:35:42;;;;;;;37.33;19.63;;;;;;;-142.75;100.00;78948.91;5029084;28;20095;-67
2022/03/10 02:38:08;;;;;;;46.40;21.35;;;;;;;-142.75;100.00;78946.94;5029920;28;20022;-67
2022/03/10 02:40:33;;;;;;;43.13;22.25;;;;;;;-142.75;100.00;78944.97;5032067;28;20025;-67
2022/03/10 02:42:58;;;;;;;45.70;22.52;;;;;;;-142.75;100.00;78943.00;5034009;28;20025;-67
2022/03/10 02:45:25;;;;;;;39.97;19.98;;;;;;;-142.75;100.00;78948.91;5034216;28;20040;-67
2022/03/10 02:47:51;;;;;;;41.97;20.90;;;;;;;-142.75;100.00;78946.94;5033696;28;20029;-65
2022/03/10 02:50:16;;;;;;;45.72;22.27;;;;;;;-142.75;100.00;78937.09;5033854;28;20079;-67
2022/03/10 02:52:43;;;;;;;45.30;21.55;;;;;;;-142.75;100.00;78939.06;5032625;28;20112;-67
2022/03/10 02:55:09;;;;;;;41.07;19.93;;;;;;;-142.75;100.00;78933.16;5032673;28;20384;-67
2022/03/10 02:57:37;;;;;;;37.33;18.73;;;;;;;-142.75;100.00;78941.03;5032394;28;20040;-67
2022/03/10 03:00:04;;;;;;;44.30;20.80;;;;;;;-142.75;100.00;78956.78;5033496;28;20021;-67
2022/03/10 03:02:29;;;;;;;43.30;21.73;;;;;;;-142.75;100.00;78966.66;5033704;28;20096;-68
2022/03/10 03:04:55;;;;;;;42.42;21.88;;;;;;;-142.75;100.00;78984.38;5033804;28;20108;-67
2022/03/10 03:07:21;;;;;;;39.85;20.50;;;;;;;-142.75;100.00;79021.78;5033808;28;20022;-67
2022/03/10 03:09:46;;;;;;;37.65;20.08;;;;;;;-142.75;100.00;79008.00;5039089;28;20474;-67
2022/03/10 03:12:11;;;;;;;38.47;20.17;;;;;;;-142.75;100.00;79000.13;5033553;28;20029;-67
2022/03/10 03:14:37;;;;;;;40.47;21.35;;;;;;;-142.75;100.00;79004.06;5033585;28;20056;-67
2022/03/10 03:17:03;;;;;;;42.70;21.73;;;;;;;-142.75;100.00;79000.13;5032137;28;20025;-67
2022/03/10 03:19:28;;;;;;;41.25;22.42;;;;;;;-142.75;100.00;79008.00;5033100;28;20025;-67
2022/03/10 03:21:53;;;;;;;37.10;20.43;;;;;;;-142.75;100.00;79000.13;5032132;28;20179;-67
2022/03/10 03:24:19;;;;;;;42.57;21.90;;;;;;;-142.75;100.00;78992.25;5033511;28;20025;-67
2022/03/10 03:26:45;;;;;;;43.03;21.90;;;;;;;-142.75;100.00;78992.25;5033267;28;20299;-68
2022/03/10 03:29:10;;;;;;;45.50;22.00;;;;;;;-142.75;100.00;78994.22;5032986;28;20052;-67
2022/03/10 03:31:36;;;;;;;39.42;20.23;;;;;;;-142.75;100.00;79019.81;5034135;28;20359;-68
2022/03/10 03:34:02;;;;;;;41.75;22.15;;;;;;;-142.75;100.00;79029.66;5033043;28;20091;-67
2022/03/10 03:36:27;;;;;;;44.22;22.13;;;;;;;-142.75;100.00;79029.66;5033209;28;20025;-66
2022/03/10 03:38:53;;;;;;;39.30;21.02;;;;;;;-142.75;100.00;79037.56;5032717;28;20022;-67
2022/03/10 03:41:19;;;;;;;46.78;22.25;;;;;;;-142.75;100.00;79039.53;5031692;28;20109;-67
2022/03/10 03:43:44;;;;;;;44.28;21.08;;;;;;;-142.75;100.00;79047.41;5031664;28;20084;-67
2022/03/10 03:46:10;;;;;;;41.05;22.63;;;;;;;-142.75;100.00;79055.28;5033043;28;20554;-67
2022/03/10 03:48:35;;;;;;;45.80;22.10;;;;;;;-142.75;100.00;79053.31;5032634;28;20492;-67
2022/03/10 03:51:01;;;;;;;42.50;22.30;;;;;;;-142.75;100.00;79063.16;5032691;28;20044;-67
2022/03/10 03:53:26;;;;;;;43.55;22.40;;;;;;;-142.75;100.00;79071.03;5032866;28;20368;-68
2022/03/10 03:55:51;;;;;;;42.00;21.73;;;;;;;-142.75;100.00;79074.97;5032838;28;20510;-68
2022/03/10 03:58:16;;;;;;;39.63;21.15;;;;;;;-142.75;100.00;79076.94;5031156;28;20120;-68
2022/03/10 04:00:42;;;;;;;47.28;22.52;;;;;;;-142.75;100.00;79082.84;5032557;28;20456;-67
2022/03/10 04:03:09;;;;;;;47.55;24.88;;;;;;;-142.75;100.00;79078.91;5031361;28;20026;-68
2022/03/10 04:05:35;;;;;;;45.43;23.03;;;;;;;-142.75;100.00;79082.84;5032507;28;20382;-67
2022/03/10 04:08:01;;;;;;;45.40;22.40;;;;;;;-142.75;100.00;79084.81;5032300;28;20491;-68
2022/03/10 04:10:26;;;;;;;44.95;23.02;;;;;;;-142.75;100.00;79102.56;5031101;28;20029;-67
2022/03/10 04:12:51;;;;;;;41.83;22.40;;;;;;;-142.75;100.00;79112.41;5032546;28;20026;-68
2022/03/10 04:15:16;;;;;;;45.00;22.97;;;;;;;-142.75;100.00;79120.28;5031186;28;20334;-68
2022/03/10 04:17:42;;;;;;;42.15;22.48;;;;;;;-142.75;100.00;79126.19;5032244;28;20032;-68
2022/03/10 04:20:12;;;;;;;42.20;22.98;;;;;;;-142.75;100.00;79132.09;5030697;28;20108;-67
2022/03/10 04:22:38;;;;;;;43.07;22.73;;;;;;;-142.75;100.00;79130.13;5031019;28;20032;-68
2022/03/10 04:25:05;;;;;;;44.83;22.00;;;;;;;-142.75;100.00;79130.13;5032111;28;20021;-68
2022/03/10 04:27:31;;;;;;;42.17;21.97;;;;;;;-142.75;100.00;79118.31;5032199;28;20024;-67
2022/03/10 04:29:56;;;;;;;41.40;22.38;;;;;;;-142.75;100.00;79116.34;5030477;28;20410;-68
2022/03/10 04:32:21;;;;;;;47.73;21.73;;;;;;;-142.75;100.00;79124.22;5032028;28;20099;-68
2022/03/10 04:34:46;;;;;;;43.00;21.73;;;;;;;-142.75;100.00;79120.28;5031402;28;20353;-68
2022/03/10 04:37:12;;;;;;;42.00;21.27;;;;;;;-142.75;100.00;79122.25;5031951;28;20288;-68
2022/03/10 04:39:37;;;;;;;46.42;23.05;;;;;;;-142.75;100.00;79130.13;5031713;28;20079;-68
2022/03/10 04:42:03;;;;;;;44.30;23.20;;;;;;;-142.75;100.00;79138.00;5031765;28;20053;-68
2022/03/10 04:44:28;;;;;;;45.47;21.92;;;;;;;-142.75;100.00;79126.19;5031884;28;20263;-68
2022/03/10 04:46:54;;;;;;;42.30;21.55;;;;;;;-142.75;100.00;79145.88;5031760;28;20097;-67
2022/03/10 04:49:19;;;;;;;50.73;23.20;;;;;;;-142.75;100.00;79161.66;5031461;28;20033;-68
2022/03/10 04:51:45;;;;;;;42.63;22.33;;;;;;;-142.75;100.00;79157.72;5030364;28;20021;-67
2022/03/10 04:54:10;;;;;;;43.03;22.10;;;;;;;-142.75;100.00;79161.66;5031682;28;20762;-67
2022/03/10 04:56:35;;;;;;;41.10;21.98;;;;;;;-142.75;100.00;79165.59;5031770;28;20084;-68
2022/03/10 04:59:00;;;;;;;41.70;22.53;;;;;;;-142.75;100.00;79173.47;5029888;28;20463;-67
2022/03/10 05:01:26;;;;;;;46.00;24.30;;;;;;;-142.75;100.00;79185.28;5031513;28;20338;-67
2022/03/10 05:03:51;;;;;;;46.83;23.23;;;;;;;-142.75;100.00;79193.16;5030906;28;20403;-67
2022/03/10 05:06:16;;;;;;;43.53;22.20;;;;;;;-142.75;100.00;79189.22;5031512;28;20021;-67
2022/03/10 05:08:42;;;;;;;43.63;23.70;;;;;;;-142.75;100.00;79193.16;5031212;28;20060;-68
2022/03/10 05:11:07;;;;;;;47.00;22.75;;;;;;;-142.75;100.00;79199.06;5031386;28;20024;-67
2022/03/10 05:13:33;;;;;;;44.78;23.10;;;;;;;-142.75;100.00;79197.09;5031669;28;20017;-65
2022/03/10 05:15:58;;;;;;;42.90;20.92;;;;;;;-142.75;100.00;79191.19;5031307;28;20048;-68
2022/03/10 05:18:23;;;;;;;44.47;22.08;;;;;;;-142.75;100.00;79197.09;5030793;28;20634;-67
2022/03/10 05:20:49;;;;;;;43.90;22.80;;;;;;;-142.75;100.00;79206.94;5042370;28;20017;-69
2022/03/10 05:23:14;;;;;;;45.42;22.60;;;;;;;-142.75;100.00;79204.97;5049739;28;20275;-67
2022/03/10 05:25:41;;;;;;;45.45;24.65;;;;;;;-142.75;100.00;79208.91;5051082;28;20037;-69
2022/03/10 05:28:13;;;;;;;42.40;21.77;;;;;;;-142.75;100.00;79204.97;5050703;28;20036;-67
2022/03/10 05:30:38;;;;;;;42.93;21.40;;;;;;;-142.75;100.00;79193.16;5049481;28;20037;-68
2022/03/10 05:33:03;;;;;;;39.50;22.08;;;;;;;-142.75;100.00;79189.22;5050877;28;20140;-68
2022/03/10 05:35:29;;;;;;;44.17;23.30;;;;;;;-142.75;100.00;79191.19;5050933;28;20368;-68
2022/03/10 05:37:55;;;;;;;45.45;21.98;;;;;;;-142.75;100.00;79199.06;5049209;28;20025;-67
2022/03/10 05:40:21;;;;;;;43.67;22.00;;;;;;;-142.75;100.00;79199.06;5050676;28;20036;-67
2022/03/10 05:42:47;;;;;;;39.22;21.85;;;;;;;-142.75;100.00;79189.22;5050917;28;20414;-68
2022/03/10 05:45:14;;;;;;;40.15;21.23;;;;;;;-142.75;100.00;79187.25;5050710;28;20025;-68
2022/03/10 05:47:41;;;;;;;45.43;23.73;;;;;;;-142.75;100.00;79189.22;5050594;28;20072;-67
2022/03/10 05:50:07;;;;;;;44.93;23.07;;;;;;;-142.75;100.00;79191.19;5049116;28;20025;-67
2022/03/10 05:52:32;;;;;;;40.87;21.80;;;;;;;-142.75;100.00;79197.09;5049268;28;20723;-68
2022/03/10 05:54:58;;;;;;;45.10;23.55;;;;;;;-142.75;100.00;79201.03;5049287;28;20025;-66
2022/03/10 05:57:23;;;;;;;44.08;23.83;;;;;;;-142.75;100.00;79199.06;5049335;28;20028;-68
2022/03/10 05:59:48;;;;;;;41.22;22.92;;;;;;;-142.75;100.00;79206.94;5050486;28;20028;-67
2022/03/10 06:02:18;;;;;;;48.00;23.00;;;;;;;-142.75;100.00;79203.00;5050486;28;20039;-68
2022/03/10 06:04:44;;;;;;;43.30;23.17;;;;;;;-142.75;100.00;79206.94;5050520;28;20796;-67
2022/03/10 06:07:09;;;;;;;41.55;22.50;;;;;;;-142.75;100.00;79210.88;5050407;28;20029;-67
2022/03/10 06:09:34;;;;;;;46.75;22.40;;;;;;;-142.75;100.00;79224.69;5050224;28;20017;-68
2022/03/10 06:11:59;;;;;;;45.95;22.83;;;;;;;-142.75;100.00;79230.59;5050540;28;21521;-68
2022/03/10 06:14:25;;;;;;;43.75;22.15;;;;;;;-142.75;100.00;79240.44;5050307;28;20028;-66
2022/03/10 06:16:50;;;;;;;46.97;22.35;;;;;;;-142.75;100.00;79220.75;5053030;28;20037;-67
2022/03/10 06:19:16;;;;;;;51.60;23.77;;;;;;;-142.75;100.00;79216.78;5054298;28;20055;-68
2022/03/10 06:21:41;;;;;;;43.85;22.40;;;;;;;-142.75;100.00;79208.91;5054404;28;20053;-67
2022/03/10 06:24:07;;;;;;;47.15;22.25;;;;;;;-142.75;100.00;79201.03;5054431;28;20036;-67
2022/03/10 06:26:33;;;;;;;42.30;21.23;;;;;;;-142.75;100.00;79197.09;5054350;28;20082;-67
2022/03/10 06:28:58;;;;;;;40.00;21.73;;;;;;;-142.75;100.00;79193.16;5054044;28;20021;-67
2022/03/10 06:31:24;;;;;;;42.13;21.33;;;;;;;-142.75;100.00;79177.41;5054041;28;20028;-68
2022/03/10 06:33:51;;;;;;;42.17;21.47;;;;;;;-142.75;100.00;79153.75;5054211;28;20029;-68
2022/03/10 06:36:17;;;;;;;45.70;23.43;;;;;;;-142.75;100.00;79149.81;5054134;28;20025;-67
2022/03/10 06:38:42;;;;;;;39.17;22.13;;;;;;;-142.75;100.00;79153.75;5052493;28;20029;-67
2022/03/10 06:41:08;;;;;;;38.75;20.35;;;;;;;-142.75;100.00;79138.00;5054079;28;20166;-67
2022/03/10 06:43:33;;;;;;;43.85;21.92;;;;;;;-142.75;100.00;79128.16;5053973;28;20474;-67
2022/03/10 06:45:58;;;;;;;39.83;21.00;;;;;;;-142.75;100.00;79110.44;5053888;28;20028;-67
2022/03/10 06:48:23;;;;;;;41.60;20.43;;;;;;;-142.75;100.00;79094.69;5052465;28;20271;-68
2022/03/10 06:50:49;;;;;;;47.33;21.37;;;;;;;-142.75;100.00;79076.94;5053651;28;20031;-68
2022/03/10 06:53:14;;;;;;;40.57;20.83;;;;;;;-142.75;100.00;79063.16;5053885;28;20927;-66
2022/03/10 06:55:39;;;;;;;44.35;21.75;;;;;;;-142.75;100.00;79055.28;5052572;28;20033;-66
2022/03/10 06:58:05;;;;;;;41.17;21.13;;;;;;;-142.75;100.00;79023.75;5053382;28;20067;-67
2022/03/10 07:00:31;;;;;;;44.88;21.85;;;;;;;-142.75;100.00;79004.06;5052198;28;20271;-66
2022/03/10 07:02:56;;;;;;;39.38;21.48;;;;;;;-142.75;100.00;79000.13;5053648;28;20033;-66
2022/03/10 07:05:21;;;;;;;40.53;20.80;;;;;;;-142.75;100.00;78988.31;5053604;28;20462;-66
2022/03/10 07:07:47;;;;;;;39.75;21.20;;;;;;;-142.75;100.00;78958.75;5053328;28;20055;-64
2022/03/10 07:10:12;;;;;;;41.20;20.53;;;;;;;-142.75;100.00;78944.97;5053406;28;20028;-66
2022/03/10 07:12:39;;;;;;;41.53;20.58;;;;;;;-142.75;100.00;78935.13;5053502;28;20359;-66
2022/03/10 07:15:06;;;;;;;41.77;20.83;;;;;;;-142.75;100.00;78929.22;5053381;28;20025;-66
2022/03/10 07:17:33;;;;;;;40.23;20.97;;;;;;;-142.75;100.00;78903.63;5053389;28;20041;-66
2022/03/10 07:19:58;;;;;;;40.72;21.05;;;;;;;-142.75;100.00;78881.94;5053012;28;20496;-66
2022/03/10 07:22:23;;;;;;;40.97;20.85;;;;;;;-142.75;100.00;78879.97;5052020;28;20021;-66
2022/03/10 07:24:49;;;;;;;39.00;20.90;;;;;;;-142.75;100.00;78858.31;5053226;28;20025;-66
2022/03/10 07:27:15;;;;;;;37.97;19.25;;;;;;;-142.75;100.00;78826.81;5052776;28;20282;-66
2022/03/10 07:29:41;;;;;;;45.00;22.88;;;;;;;-142.75;100.00;78795.28;5051601;28;20040;-66
2022/03/10 07:32:06;;;;;;;41.63;20.95;;;;;;;-142.75;100.00;78757.88;5053041;28;20070;-67
2022/03/10 07:34:32;;;;;;;46.47;22.63;;;;;;;-142.75;100.00;78716.50;5053040;28;20024;-67
2022/03/10 07:36:57;;;;;;;36.92;20.58;;;;;;;-142.75;100.00;78688.94;5052919;28;20017;-67
2022/03/10 07:39:22;;;;;;;38.85;20.75;;;;;;;-142.75;100.00;78681.06;5051667;28;20021;-67
2022/03/10 07:41:48;;;;;;;40.40;20.30;;;;;;;-142.75;100.00;78653.47;5051854;28;20032;-66
2022/03/10 07:44:13;;;;;;;36.45;20.65;;;;;;;-142.75;100.00;78641.66;5052003;28;20028;-66
2022/03/10 07:46:39;;;;;;;41.13;20.98;;;;;;;-142.75;100.00;78625.91;5050702;28;20482;-66
2022/03/10 07:49:05;;;;;;;44.97;21.55;;;;;;;-142.75;100.00;78596.38;5051595;28;20028;-66
2022/03/10 07:51:30;;;;;;;36.65;21.02;;;;;;;-142.75;100.00;78537.28;5051862;28;20017;-67
2022/03/10 07:53:55;;;;;;;40.72;21.10;;;;;;;-142.75;100.00;78505.78;5050326;28;20540;-67
2022/03/10 07:56:21;;;;;;;42.15;21.67;;;;;;;-142.75;100.00;78503.81;5051465;28;20033;-66
2022/03/10 07:58:46;;;;;;;39.83;22.38;;;;;;;-142.75;100.00;78503.81;5051301;28;20491;-67
2022/03/10 08:01:12;;;;;;;36.70;19.30;;;;;;;-142.75;100.00;78488.03;5050118;28;20025;-66
2022/03/10 08:03:38;;;;;;;41.75;21.95;;;;;;;-142.75;100.00;78460.47;5051790;28;20052;-67
2022/03/10 08:06:04;;;;;;;45.00;21.37;;;;;;;-142.75;100.00;78452.59;5050373;28;20078;-67
2022/03/10 08:08:29;;;;;;;39.00;21.42;;;;;;;-142.75;100.00;78468.34;5041719;28;20028;-66
2022/03/10 08:10:54;;;;;;;37.78;21.20;;;;;;;-142.75;100.00;78476.22;5042175;28;20411;-67
2022/03/10 08:13:24;;;;;;;40.30;21.10;;;;;;;-142.75;100.00;78484.09;5031418;28;20685;-67
2022/03/10 08:15:50;;;;;;;39.37;21.33;;;;;;;-142.75;100.00;78450.63;5031586;28;20394;-67
2022/03/10 08:18:16;;;;;;;39.97;22.00;;;;;;;-142.75;100.00;78403.38;5031087;28;20507;-67
2022/03/10 08:20:41;;;;;;;38.38;21.27;;;;;;;-142.75;100.00;78354.13;5050005;28;20040;-67
2022/03/10 08:23:07;;;;;;;38.75;22.55;;;;;;;-142.75;100.00;78350.19;5051144;28;20025;-67
2022/03/10 08:25:34;;;;;;;38.17;22.30;;;;;;;-142.75;100.00;78342.31;5051242;28;20056;-67
2022/03/10 08:27:59;;;;;;;39.13;21.70;;;;;;;-142.75;100.00;78352.16;5050850;28;20024;-67
2022/03/10 08:30:24;;;;;;;42.47;21.70;;;;;;;-142.75;100.00;78314.75;5049199;28;20021;-66
2022/03/10 08:32:50;;;;;;;41.03;21.80;;;;;;;-142.75;100.00;78291.09;5051154;28;20033;-67
2022/03/10 08:35:18;;;;;;;41.53;21.17;;;;;;;-142.75;100.00;78279.28;5049507;28;20155;-66
2022/03/10 08:37:43;;;;;;;39.80;20.40;;;;;;;-142.75;100.00;78273.38;5050081;28;20366;-67
2022/03/10 08:40:10;;;;;;;43.05;21.38;;;;;;;-142.75;100.00;78273.38;5048636;28;20605;-67
2022/03/10 08:42:36;;;;;;;39.77;20.63;;;;;;;-142.75;100.00;78279.28;5044331;28;20025;-67
2022/03/10 08:45:01;;;;;;;37.45;22.08;;;;;;;-142.75;100.00;78297.00;5030954;28;20037;-67
2022/03/10 08:47:28;;;;;;;39.80;22.15;;;;;;;-142.75;100.00;78245.81;5030717;28;20071;-68
2022/03/10 08:49:54;;;;;;;42.50;22.73;;;;;;;-142.75;100.00;78230.06;5042905;28;20021;-65
2022/03/10 08:52:19;;;;;;;36.63;20.92;;;;;;;-142.75;100.00;78206.44;5050774;28;20051;-68
2022/03/10 08:54:44;;;;;;;38.78;22.30;;;;;;;-142.75;100.00;78204.47;5049065;28;20120;-67
2022/03/10 08:57:10;;;;;;;42.73;22.50;;;;;;;-142.75;100.00;78222.19;5050605;28;20028;-67
2022/03/10 08:59:35;;;;;;;41.17;22.40;;;;;;;-142.75;100.00;78237.94;5049193;28;20035;-68
2022/03/10 09:02:00;;;;;;;39.92;21.00;;;;;;;-142.75;100.00;78228.09;5049653;28;20025;-67
2022/03/10 09:04:26;;;;;;;38.53;20.70;;;;;;;-142.75;100.00;78208.41;5050540;28;20490;-66
2022/03/10 09:06:51;;;;;;;39.17;21.83;;;;;;;-142.75;100.00;78176.88;5049184;28;20490;-68
2022/03/10 09:09:17;;;;;;;34.92;20.73;;;;;;;-142.75;99.54;78190.69;5049985;28;20036;-67
2022/03/10 09:11:42;;;;;;;38.88;21.58;;;;;;;-142.75;100.00;78180.81;5050294;28;20029;-68
2022/03/10 09:14:08;;;;;;;40.33;21.98;;;;;;;-142.75;100.00;78141.44;5050305;28;20060;-67
2022/03/10 09:16:33;;;;;;;43.35;22.67;;;;;;;-142.75;100.00;78119.78;5050304;28;20025;-66
2022/03/10 09:19:00;;;;;;;36.88;22.45;;;;;;;-142.75;100.00;78070.56;5049901;28;20025;-67
2022/03/10 09:21:26;;;;;;;37.47;21.13;;;;;;;-142.75;98.99;78064.66;5049955;28;20502;-67
2022/03/10 09:23:51;;;;;;;;;;;;;;;-142.75;95.86;77942.56;5050492;28;20127;-66
2022/03/10 09:26:17;;;;;;;37.05;20.23;;;;;;;-142.75;90.39;77948.47;5050316;28;19999;-67
2022/03/10 09:28:43;;;;;;;;;;;;;;;-142.75;92.51;77893.31;5050234;28;20502;-67
2022/03/10 09:31:10;;;;;;;42.95;21.02;;;;;;;-142.75;88.81;77842.13;5048658;28;19919;-68
2022/03/10 09:33:35;;;;;;;36.25;21.42;;;;;;;-142.75;87.94;77812.59;5050036;28;20540;-68
2022/03/10 09:36:01;;;;;;;40.33;21.05;;;;;;;-142.75;85.58;77806.69;5048585;28;20060;-67
2022/03/10 09:38:26;;;;;;;34.83;19.13;;;;;;;-142.75;85.23;77802.75;5047996;28;20104;-66
2022/03/10 09:40:54;;;;;;;39.90;20.48;;;;;;;-142.75;86.42;77818.50;5048696;28;20035;-68
2022/03/10 09:43:22;;;;;;;34.35;20.60;;;;;;;-142.75;82.81;77822.44;5049763;28;20025;-68
2022/03/10 09:45:49;;;;;;;33.20;20.92;;;;;;;-142.75;86.63;77806.69;5049776;28;20036;-68
2022/03/10 09:48:15;;;;;;;40.38;21.08;;;;;;;-142.75;84.75;77765.34;5049576;28;20386;-68
2022/03/10 09:50:40;;;;;;;38.47;22.48;;;;;;;-142.75;81.71;77722.00;5049309;28;20479;-67
2022/03/10 09:53:06;;;;;;;33.65;20.00;;;;;;;-142.75;83.01;77716.09;5049645;28;20029;-67
2022/03/10 09:55:31;;;;;;;38.30;21.65;;;;;;;-142.75;79.27;77674.75;5048549;28;20040;-68
2022/03/10 09:57:59;;;;;;;37.45;21.95;;;;;;;-142.75;79.84;77692.47;5049297;28;20033;-67
2022/03/10 10:00:24;;;;;;;41.75;20.73;;;;;;;-142.75;78.71;77680.66;5049526;28;20033;-67
2022/03/10 10:02:51;;;;;;;37.50;21.60;;;;;;;-142.75;80.92;77623.56;5049746;28;20031;-68
2022/03/10 10:05:24;;;;;;;35.75;20.88;;;;;;;-142.75;79.16;77588.13;5049449;28;20290;-68
2022/03/10 10:08:09;;;;;;;35.33;19.80;;;;;;;-142.75;75.39;77605.84;5049231;28;20020;-67
2022/03/10 10:10:42;;;;;;;33.60;20.13;;;;;;;-142.75;78.63;77588.13;5049170;28;20447;-67
2022/03/10 10:13:07;;;;;;;37.80;19.55;;;;;;;-142.75;76.44;77550.72;5048081;28;20025;-67
2022/03/10 10:15:34;;;;;;;36.88;20.08;;;;;;;-142.75;73.46;77493.63;5047976;28;20075;-67
2022/03/10 10:18:00;;;;;;;32.53;18.73;;;;;;;-142.75;70.92;77466.03;5047468;28;20490;-68
2022/03/10 10:20:29;;;;;;;;;;;;;;;-142.75;71.22;77456.22;5049470;28;20031;-68
2022/03/10 10:22:55;;;;;;;34.22;19.13;;;;;;;-142.75;71.78;77440.44;5048145;28;19943;-68
2022/03/10 10:25:21;;;;;;;37.78;19.23;;;;;;;-142.75;71.91;77389.25;5048082;28;20581;-69
2022/03/10 10:27:47;;;;;;;34.95;19.92;;;;;;;-142.75;71.10;77365.63;5048848;28;20043;-68
2022/03/10 10:30:12;;;;;;;34.55;19.77;;;;;;;-142.75;67.50;77332.16;5047877;28;20017;-69
2022/03/10 10:32:53;;;;;;;33.83;19.05;;;;;;;-142.75;66.61;77310.50;5049336;28;20025;-68
2022/03/10 10:35:22;;;;;;;30.48;17.63;;;;;;;-142.75;67.02;77324.28;5049189;28;20039;-69
2022/03/10 10:37:50;;;;;;;33.80;19.70;;;;;;;-142.75;66.83;77296.72;5046963;28;20060;-67
2022/03/10 10:40:21;;;;;;;35.75;18.65;;;;;;;-142.75;65.89;77267.19;5045926;28;20112;-69
2022/03/10 10:42:46;;;;;;;36.50;19.73;;;;;;;-142.75;66.80;77271.13;5050250;28;20033;-69
2022/03/10 10:45:41;;;;;;;32.42;18.65;;;;;;;-142.75;64.34;77219.94;5039446;28;20021;-68
2022/03/10 10:48:11;;;;;;;29.67;17.73;;;;;;;-142.75;63.86;77192.38;5008806;28;20041;-69
2022/03/10 10:50:39;;;;;;;33.33;19.13;;;;;;;-142.75;62.47;77149.06;5037234;28;20108;-69
2022/03/10 10:53:06;;;;;;;32.33;19.20;;;;;;;-142.75;61.21;77162.84;5030319;28;20079;-69
2022/03/10 10:55:35;;;;;;;33.20;19.85;;;;;;;-142.75;62.71;77153.00;5037463;28;20105;-69
2022/03/10 10:58:13;;;;;;;30.85;19.40;;;;;;;-142.75;62.88;77131.34;5048283;28;20025;-72